createdAt,value
2022-10-14T00:00:04.919Z,76.64
2022-10-14T00:01:17.782Z,76.63
2022-10-14T00:02:19.852Z,76.66
2022-10-14T00:03:21.818Z,76.76
2022-10-14T00:04:23.574Z,76.79
2022-10-14T00:05:25.415Z,76.81
2022-10-14T00:06:30.342Z,76.79
2022-10-14T00:07:32.517Z,76.52
2022-10-14T00:08:34.407Z,76.47
2022-10-14T00:09:36.690Z,76.27
2022-10-14T00:10:40.272Z,76.08
2022-10-14T00:11:41.923Z,76.25
2022-10-14T00:12:43.948Z,76.36
2022-10-14T00:13:46.182Z,76.29
2022-10-14T00:14:48.337Z,76.29
2022-10-14T00:15:50.693Z,76.25
2022-10-14T00:16:53.846Z,76.21
2022-10-14T00:17:55.672Z,76.40
2022-10-14T00:18:58.192Z,76.56
2022-10-14T00:20:00.347Z,76.74
2022-10-14T00:21:02.291Z,77.01
2022-10-14T00:22:04.384Z,77.01
2022-10-14T00:23:06.655Z,76.82
2022-10-14T00:24:10.758Z,76.70
2022-10-14T00:25:12.716Z,76.39
2022-10-14T00:26:21.260Z,76.00
2022-10-14T00:27:23.893Z,76.03
2022-10-14T00:28:26.282Z,76.26
2022-10-14T00:29:28.279Z,76.55
2022-10-14T00:30:30.260Z,76.79
2022-10-14T00:31:33.634Z,76.90
2022-10-14T00:32:35.377Z,76.67
2022-10-14T00:33:37.219Z,76.63
2022-10-14T00:34:39.130Z,76.62
2022-10-14T00:35:41.097Z,76.57
2022-10-14T00:36:43.556Z,76.37
2022-10-14T00:37:47.565Z,76.51
2022-10-14T00:38:50.554Z,76.58
2022-10-14T00:39:56.773Z,76.70
2022-10-14T00:40:58.350Z,76.70
2022-10-14T00:42:00.160Z,76.71
2022-10-14T00:43:02.433Z,76.74
2022-10-14T00:44:16.984Z,76.79
2022-10-14T00:45:22.660Z,76.72
2022-10-14T00:46:27.657Z,76.54
2022-10-14T00:47:32.651Z,76.55
2022-10-14T00:48:35.343Z,76.75
2022-10-14T00:49:40.635Z,76.83
2022-10-14T00:50:44.807Z,76.87
2022-10-14T00:51:50.395Z,76.86
2022-10-14T00:52:52.483Z,76.84
2022-10-14T00:53:55.524Z,76.98
2022-10-14T00:56:23.354Z,76.90
2022-10-14T00:57:27.419Z,76.64
2022-10-14T00:58:30.147Z,76.68
2022-10-14T00:59:34.313Z,76.59
2022-10-14T01:00:37.341Z,76.42
2022-10-14T01:01:39.996Z,76.30
2022-10-14T01:02:42.284Z,76.31
2022-10-14T01:03:44.549Z,76.52
2022-10-14T01:04:46.512Z,76.65
2022-10-14T01:05:55.232Z,76.69
2022-10-14T01:07:22.089Z,76.69
2022-10-14T01:08:37.085Z,76.75
2022-10-14T01:09:42.553Z,76.71
2022-10-14T01:10:49.260Z,76.62
2022-10-14T01:12:28.065Z,76.64
2022-10-14T01:13:32.962Z,76.68
2022-10-14T01:14:57.147Z,76.80
2022-10-14T01:16:26.290Z,76.50
2022-10-14T01:18:05.657Z,76.14
2022-10-14T01:19:40.638Z,75.89
2022-10-14T01:21:09.057Z,75.90
2022-10-14T01:22:26.267Z,76.09
2022-10-14T01:23:43.878Z,76.21
2022-10-14T01:24:59.110Z,76.31
2022-10-14T01:26:10.887Z,76.04
2022-10-14T01:27:44.164Z,76.17
2022-10-14T01:29:01.883Z,76.16
2022-10-14T01:30:22.811Z,75.96
2022-10-14T01:31:29.179Z,76.06
2022-10-14T01:32:37.737Z,75.88
2022-10-14T01:33:45.637Z,76.09
2022-10-14T01:34:51.269Z,76.41
2022-10-14T01:36:25.780Z,76.47
2022-10-14T01:37:30.835Z,76.35
2022-10-14T01:38:45.624Z,76.40
2022-10-14T01:39:52.073Z,76.15
2022-10-14T01:41:09.222Z,75.96
2022-10-14T01:42:15.449Z,75.97
2022-10-14T01:43:22.089Z,75.69
2022-10-14T01:44:26.948Z,75.65
2022-10-14T01:45:32.552Z,75.61
2022-10-14T01:46:37.529Z,75.87
2022-10-14T01:47:41.477Z,75.99
2022-10-14T01:48:50.118Z,76.09
2022-10-14T01:49:55.649Z,76.28
2022-10-14T01:51:01.288Z,76.19
2022-10-14T01:52:06.800Z,76.17
2022-10-14T01:53:15.347Z,76.22
2022-10-14T01:54:20.904Z,76.08
2022-10-14T01:55:26.409Z,75.95
2022-10-14T01:56:35.013Z,75.77
2022-10-14T01:57:39.892Z,75.74
2022-10-14T01:58:46.116Z,75.78
2022-10-14T01:59:49.775Z,75.78
2022-10-14T02:00:52.723Z,75.73
2022-10-14T02:01:54.622Z,75.72
2022-10-14T02:02:56.400Z,75.76
2022-10-14T02:03:58.266Z,76.12
2022-10-14T02:05:06.297Z,76.29
2022-10-14T02:06:28.206Z,76.24
2022-10-14T02:07:39.838Z,76.26
2022-10-14T02:09:09.706Z,76.31
2022-10-14T02:10:21.423Z,76.17
2022-10-14T02:11:23.861Z,75.92
2022-10-14T02:12:34.109Z,76.53
2022-10-14T02:13:45.438Z,76.50
2022-10-14T02:15:07.675Z,76.63
2022-10-14T02:16:19.552Z,76.68
2022-10-14T02:17:31.472Z,76.50
2022-10-14T02:18:43.745Z,76.56
2022-10-14T02:19:55.014Z,76.53
2022-10-14T02:21:13.203Z,76.43
2022-10-14T02:22:22.143Z,76.17
2022-10-14T02:23:34.241Z,76.35
2022-10-14T02:24:42.624Z,76.41
2022-10-14T02:25:47.476Z,76.35
2022-10-14T02:26:52.258Z,76.31
2022-10-14T02:27:57.185Z,76.29
2022-10-14T02:29:01.290Z,76.14
2022-10-14T02:30:04.299Z,76.24
2022-10-14T02:31:11.459Z,76.40
2022-10-14T02:32:19.359Z,76.58
2022-10-14T02:33:25.302Z,76.42
2022-10-14T02:34:27.748Z,76.37
2022-10-14T02:35:30.784Z,76.36
2022-10-14T02:36:33.755Z,76.35
2022-10-14T02:37:40.145Z,76.32
2022-10-14T02:38:43.307Z,76.33
2022-10-14T02:39:57.370Z,76.35
2022-10-14T02:41:03.575Z,76.27
2022-10-14T02:42:05.940Z,75.95
2022-10-14T02:43:11.131Z,75.96
2022-10-14T02:44:13.020Z,76.06
2022-10-14T02:45:15.701Z,76.11
2022-10-14T02:46:21.571Z,76.19
2022-10-14T02:47:24.352Z,76.15
2022-10-14T02:48:26.952Z,76.16
2022-10-14T02:49:29.929Z,76.25
2022-10-14T02:50:32.952Z,76.33
2022-10-14T02:51:35.303Z,76.38
2022-10-14T02:52:37.533Z,76.50
2022-10-14T02:53:39.342Z,76.50
2022-10-14T02:54:41.174Z,76.62
2022-10-14T02:55:42.906Z,76.49
2022-10-14T02:56:45.921Z,76.46
2022-10-14T02:57:48.079Z,76.43
2022-10-14T02:58:49.837Z,76.46
2022-10-14T02:59:52.305Z,76.33
2022-10-14T03:00:54.401Z,76.26
2022-10-14T03:01:56.613Z,76.17
2022-10-14T03:02:58.802Z,76.58
2022-10-14T03:04:01.917Z,76.53
2022-10-14T03:05:04.666Z,76.45
2022-10-14T03:06:07.082Z,76.57
2022-10-14T03:07:09.608Z,76.75
2022-10-14T03:08:13.622Z,76.92
2022-10-14T03:09:15.875Z,76.92
2022-10-14T03:10:19.344Z,77.08
2022-10-14T03:11:21.643Z,77.08
2022-10-14T03:12:25.709Z,77.08
2022-10-14T03:13:29.177Z,77.10
2022-10-14T03:14:30.977Z,77.25
2022-10-14T03:15:33.545Z,77.23
2022-10-14T03:16:35.601Z,77.08
2022-10-14T03:17:38.331Z,77.14
2022-10-14T03:18:40.731Z,77.12
2022-10-14T03:19:44.576Z,76.91
2022-10-14T03:20:48.585Z,76.78
2022-10-14T03:21:52.397Z,76.62
2022-10-14T03:22:55.344Z,76.83
2022-10-14T03:23:57.761Z,76.96
2022-10-14T03:25:01.956Z,77.36
2022-10-14T03:26:20.920Z,78.04
2022-10-14T03:27:22.974Z,78.39
2022-10-14T03:28:26.669Z,78.40
2022-10-14T03:30:43.973Z,78.39
2022-10-14T03:31:47.769Z,78.37
2022-10-14T03:33:03.556Z,78.37
2022-10-14T03:34:13.216Z,78.46
2022-10-14T03:35:15.845Z,79.48
2022-10-14T03:36:20.395Z,79.72
2022-10-14T03:37:24.249Z,79.99
2022-10-14T03:38:28.478Z,80.06
2022-10-14T03:39:32.117Z,79.95
2022-10-14T03:40:36.261Z,79.83
2022-10-14T03:41:40.216Z,79.60
2022-10-14T03:42:42.356Z,79.22
2022-10-14T03:43:44.326Z,78.87
2022-10-14T03:44:46.700Z,78.68
2022-10-14T03:45:56.098Z,78.53
2022-10-14T03:46:59.175Z,78.39
2022-10-14T03:48:03.247Z,78.32
2022-10-14T03:49:05.032Z,78.40
2022-10-14T03:50:08.473Z,79.04
2022-10-14T03:51:15.150Z,79.74
2022-10-14T03:52:17.248Z,79.56
2022-10-14T03:53:19.163Z,79.96
2022-10-14T03:54:21.256Z,80.51
2022-10-14T03:55:24.363Z,80.91
2022-10-14T03:56:26.630Z,80.63
2022-10-14T03:57:29.810Z,80.67
2022-10-14T03:58:33.941Z,81.08
2022-10-14T03:59:38.356Z,81.31
2022-10-14T04:00:41.745Z,81.63
2022-10-14T04:02:03.786Z,81.68
2022-10-14T04:03:06.454Z,81.81
2022-10-14T04:04:11.547Z,81.80
2022-10-14T04:05:13.956Z,81.81
2022-10-14T04:06:16.944Z,81.66
2022-10-14T04:07:19.227Z,81.64
2022-10-14T04:08:24.200Z,81.77
2022-10-14T04:09:28.501Z,81.89
2022-10-14T04:10:31.102Z,81.95
2022-10-14T04:11:33.587Z,81.66
2022-10-14T04:12:37.719Z,81.33
2022-10-14T04:13:41.465Z,81.05
2022-10-14T04:14:43.508Z,80.62
2022-10-14T04:15:46.198Z,80.68
2022-10-14T04:16:56.914Z,80.83
2022-10-14T04:17:59.263Z,80.95
2022-10-14T04:19:01.185Z,80.77
2022-10-14T04:20:04.008Z,80.42
2022-10-14T04:21:09.799Z,81.17
2022-10-14T04:22:11.636Z,81.58
2022-10-14T04:23:14.885Z,81.49
2022-10-14T04:24:18.442Z,81.44
2022-10-14T04:25:25.837Z,81.36
2022-10-14T04:26:29.704Z,80.79
2022-10-14T04:27:33.219Z,80.79
2022-10-14T04:28:37.852Z,80.60
2022-10-14T04:29:41.787Z,80.27
2022-10-14T04:30:46.376Z,80.08
2022-10-14T04:31:50.549Z,80.31
2022-10-14T04:32:52.510Z,80.41
2022-10-14T04:33:54.372Z,80.63
2022-10-14T04:34:58.159Z,80.63
2022-10-14T04:36:03.026Z,80.30
2022-10-14T04:37:06.872Z,80.39
2022-10-14T04:38:26.265Z,80.75
2022-10-14T04:39:30.531Z,81.23
2022-10-14T04:40:33.031Z,81.12
2022-10-14T04:41:35.851Z,81.13
2022-10-14T04:42:37.705Z,81.13
2022-10-14T04:43:40.778Z,81.14
2022-10-14T04:44:44.729Z,81.14
2022-10-14T04:45:49.528Z,80.89
2022-10-14T04:46:53.936Z,80.80
2022-10-14T04:47:57.617Z,80.44
2022-10-14T04:48:59.850Z,80.14
2022-10-14T04:50:04.780Z,79.93
2022-10-14T04:51:06.730Z,79.32
2022-10-14T04:52:10.667Z,79.23
2022-10-14T04:53:15.345Z,79.10
2022-10-14T04:54:20.186Z,78.60
2022-10-14T04:55:24.150Z,78.85
2022-10-14T04:56:26.852Z,78.89
2022-10-14T04:57:31.094Z,78.91
2022-10-14T04:58:33.038Z,78.73
2022-10-14T04:59:35.236Z,78.66
2022-10-14T05:00:55.880Z,78.61
2022-10-14T05:02:02.836Z,78.60
2022-10-14T05:03:13.489Z,78.85
2022-10-14T05:04:15.481Z,79.10
2022-10-14T05:05:17.878Z,79.17
2022-10-14T05:06:21.727Z,79.09
2022-10-14T05:07:25.644Z,79.00
2022-10-14T05:08:29.366Z,78.89
2022-10-14T05:09:33.064Z,78.83
2022-10-14T05:10:34.899Z,78.69
2022-10-14T05:11:38.379Z,78.48
2022-10-14T05:12:41.633Z,78.52
2022-10-14T05:13:44.033Z,78.47
2022-10-14T05:14:46.102Z,78.31
2022-10-14T05:15:50.580Z,78.17
2022-10-14T05:16:54.335Z,77.88
2022-10-14T05:17:58.309Z,77.72
2022-10-14T05:19:02.299Z,77.57
2022-10-14T05:20:06.379Z,77.34
2022-10-14T05:21:09.666Z,77.59
2022-10-14T05:22:23.093Z,78.04
2022-10-14T05:23:26.028Z,77.97
2022-10-14T05:24:29.124Z,77.97
2022-10-14T05:25:31.375Z,77.70
2022-10-14T05:26:33.875Z,77.59
2022-10-14T05:27:37.736Z,77.52
2022-10-14T05:28:39.990Z,77.16
2022-10-14T05:29:42.541Z,77.02
2022-10-14T05:30:45.316Z,77.00
2022-10-14T05:31:47.789Z,77.01
2022-10-14T05:33:00.537Z,76.93
2022-10-14T05:34:03.607Z,76.36
2022-10-14T05:35:05.948Z,76.32
2022-10-14T05:36:10.658Z,76.54
2022-10-14T05:37:12.944Z,76.54
2022-10-14T05:38:17.020Z,75.91
2022-10-14T05:39:19.426Z,75.78
2022-10-14T05:40:21.850Z,75.66
2022-10-14T05:41:25.150Z,75.57
2022-10-14T05:42:27.147Z,75.29
2022-10-14T05:43:32.634Z,75.04
2022-10-14T05:44:35.211Z,74.99
2022-10-14T05:45:37.750Z,75.15
2022-10-14T05:46:39.614Z,75.43
2022-10-14T05:47:43.641Z,75.45
2022-10-14T05:48:47.923Z,75.49
2022-10-14T05:49:50.356Z,75.55
2022-10-14T05:50:52.591Z,75.56
2022-10-14T05:51:55.712Z,75.50
2022-10-14T05:52:59.514Z,75.27
2022-10-14T05:54:03.812Z,74.98
2022-10-14T05:56:29.119Z,74.45
2022-10-14T05:57:32.407Z,74.16
2022-10-14T05:58:35.036Z,74.24
2022-10-14T05:59:37.066Z,74.17
2022-10-14T06:00:38.971Z,74.24
2022-10-14T06:01:42.567Z,74.40
2022-10-14T06:02:44.575Z,74.60
2022-10-14T06:03:52.643Z,74.85
2022-10-14T06:04:54.587Z,74.74
2022-10-14T06:05:58.696Z,74.59
2022-10-14T06:07:00.831Z,74.69
2022-10-14T06:08:03.852Z,74.86
2022-10-14T06:09:11.417Z,74.89
2022-10-14T06:10:12.675Z,74.86
2022-10-14T06:11:14.687Z,74.88
2022-10-14T06:12:16.817Z,74.75
2022-10-14T06:13:19.715Z,74.38
2022-10-14T06:14:22.649Z,73.92
2022-10-14T06:15:26.959Z,73.81
2022-10-14T06:16:29.458Z,73.72
2022-10-14T06:17:31.578Z,73.73
2022-10-14T06:18:35.066Z,73.47
2022-10-14T06:19:36.965Z,73.05
2022-10-14T06:20:38.944Z,73.22
2022-10-14T06:21:40.862Z,73.27
2022-10-14T06:22:42.607Z,73.11
2022-10-14T06:23:44.234Z,73.06
2022-10-14T06:24:45.958Z,72.76
2022-10-14T06:25:47.592Z,72.61
2022-10-14T06:26:49.537Z,72.20
2022-10-14T06:27:51.486Z,72.12
2022-10-14T06:28:54.306Z,72.12
2022-10-14T06:29:56.394Z,72.66
2022-10-14T06:30:58.277Z,72.83
2022-10-14T06:32:01.123Z,72.76
2022-10-14T06:33:03.617Z,72.68
2022-10-14T06:34:06.366Z,72.99
2022-10-14T06:35:10.641Z,72.70
2022-10-14T06:36:14.818Z,72.34
2022-10-14T06:37:17.720Z,72.47
2022-10-14T06:38:19.480Z,72.51
2022-10-14T06:39:21.607Z,72.43
2022-10-14T06:40:23.963Z,72.40
2022-10-14T06:41:25.795Z,72.03
2022-10-14T06:42:27.966Z,71.90
2022-10-14T06:43:31.719Z,71.90
2022-10-14T06:44:33.377Z,71.66
2022-10-14T06:45:36.306Z,71.70
2022-10-14T06:46:38.269Z,71.58
2022-10-14T06:47:40.417Z,71.12
2022-10-14T06:48:43.973Z,71.12
2022-10-14T06:49:47.209Z,71.26
2022-10-14T06:50:49.791Z,70.62
2022-10-14T06:51:52.220Z,70.75
2022-10-14T06:52:54.551Z,70.74
2022-10-14T06:53:56.587Z,70.29
2022-10-14T06:54:59.519Z,70.06
2022-10-14T06:56:04.313Z,70.03
2022-10-14T06:57:06.657Z,69.77
2022-10-14T06:58:08.451Z,69.22
2022-10-14T06:59:13.918Z,69.07
2022-10-14T07:00:17.272Z,68.72
2022-10-14T07:01:19.097Z,68.58
2022-10-14T07:02:21.392Z,68.79
2022-10-14T07:03:23.571Z,68.77
2022-10-14T07:04:25.358Z,68.77
2022-10-14T07:05:27.711Z,68.80
2022-10-14T07:06:29.814Z,68.61
2022-10-14T07:07:32.154Z,69.05
2022-10-14T07:08:34.543Z,68.99
2022-10-14T07:09:36.527Z,68.82
2022-10-14T07:10:39.654Z,69.07
2022-10-14T07:11:41.515Z,69.40
2022-10-14T07:12:43.667Z,69.96
2022-10-14T07:13:45.910Z,69.96
2022-10-14T07:14:47.708Z,69.23
2022-10-14T07:15:50.161Z,69.20
2022-10-14T07:16:53.112Z,69.41
2022-10-14T07:17:55.354Z,69.25
2022-10-14T07:18:57.220Z,69.31
2022-10-14T07:19:59.170Z,69.50
2022-10-14T07:21:04.267Z,69.42
2022-10-14T07:22:06.266Z,69.12
2022-10-14T07:23:08.063Z,69.51
2022-10-14T07:24:10.419Z,69.51
2022-10-14T07:25:13.356Z,69.28
2022-10-14T07:26:15.222Z,69.45
2022-10-14T07:27:17.895Z,69.23
2022-10-14T07:28:20.084Z,69.50
2022-10-14T07:29:22.517Z,69.85
2022-10-14T07:30:25.043Z,70.19
2022-10-14T07:31:28.185Z,70.18
2022-10-14T07:32:30.083Z,70.29
2022-10-14T07:33:34.490Z,70.17
2022-10-14T07:34:36.918Z,70.14
2022-10-14T07:35:38.816Z,70.00
2022-10-14T07:36:41.225Z,69.56
2022-10-14T07:37:43.070Z,69.65
2022-10-14T07:38:45.593Z,69.64
2022-10-14T07:39:47.880Z,82.27
2022-10-14T07:41:02.584Z,80.73
2022-10-14T07:42:04.703Z,83.28
2022-10-14T07:43:06.525Z,83.41
2022-10-14T07:44:08.446Z,81.39
2022-10-14T07:45:11.397Z,77.08
2022-10-14T07:46:14.872Z,74.17
2022-10-14T07:47:16.808Z,79.63
2022-10-14T07:48:27.253Z,71.52
2022-10-14T07:49:22.968Z,74.21
2022-10-14T07:50:24.928Z,69.63
2022-10-14T07:51:27.940Z,67.88
2022-10-14T07:52:29.988Z,67.88
2022-10-14T07:53:32.120Z,69.17
2022-10-14T07:54:34.625Z,68.41
2022-10-14T07:55:40.141Z,68.43
2022-10-14T07:56:43.448Z,68.08
2022-10-14T07:57:45.490Z,67.83
2022-10-14T07:58:48.045Z,70.37
2022-10-14T07:59:49.839Z,68.04
2022-10-14T08:00:55.156Z,66.81
2022-10-14T08:01:57.179Z,66.26
2022-10-14T08:02:59.622Z,66.12
2022-10-14T08:04:01.632Z,66.10
2022-10-14T08:05:25.432Z,71.05
2022-10-14T08:06:08.847Z,69.78
2022-10-14T08:07:10.974Z,66.94
2022-10-14T08:08:14.422Z,70.25
2022-10-14T08:09:17.264Z,70.59
2022-10-14T08:10:19.862Z,66.86
2022-10-14T08:11:24.563Z,72.36
2022-10-14T08:12:27.417Z,71.04
2022-10-14T08:13:29.982Z,69.14
2022-10-14T08:14:32.381Z,66.78
2022-10-14T08:15:36.809Z,69.72
2022-10-14T08:16:40.000Z,70.65
2022-10-14T08:17:42.586Z,62.71
2022-10-14T08:18:47.199Z,61.92
2022-10-14T08:19:50.624Z,68.91
2022-10-14T08:20:53.290Z,68.65
2022-10-14T08:21:55.492Z,69.60
2022-10-14T08:22:57.422Z,71.61
2022-10-14T08:23:59.161Z,71.68
2022-10-14T08:25:01.422Z,68.46
2022-10-14T08:26:03.917Z,69.51
2022-10-14T08:27:06.791Z,60.05
2022-10-14T08:28:11.053Z,60.06
2022-10-14T08:29:13.107Z,61.30
2022-10-14T08:30:15.190Z,61.58
2022-10-14T08:31:17.991Z,60.83
2022-10-14T08:32:20.776Z,59.77
2022-10-14T08:33:23.504Z,59.59
2022-10-14T08:34:25.381Z,58.20
2022-10-14T08:35:27.419Z,58.61
2022-10-14T08:36:31.418Z,57.97
2022-10-14T08:37:33.367Z,57.74
2022-10-14T08:38:36.668Z,57.63
2022-10-14T08:39:38.534Z,58.11
2022-10-14T08:40:59.373Z,57.74
2022-10-14T08:42:11.401Z,57.64
2022-10-14T08:43:23.402Z,57.61
2022-10-14T08:44:29.307Z,57.17
2022-10-14T08:45:40.494Z,58.10
2022-10-14T08:46:51.961Z,58.45
2022-10-14T08:47:56.398Z,57.99
2022-10-14T08:49:24.132Z,57.75
2022-10-14T08:50:31.036Z,57.66
2022-10-14T08:51:33.913Z,57.27
2022-10-14T08:53:55.233Z,57.92
2022-10-14T08:55:03.869Z,58.50
2022-10-14T08:56:09.284Z,58.46
2022-10-14T08:57:18.972Z,58.05
2022-10-14T08:58:40.449Z,58.29
2022-10-14T08:59:43.023Z,58.47
2022-10-14T09:00:48.587Z,58.36
2022-10-14T09:01:57.202Z,58.27
2022-10-14T09:03:02.753Z,58.24
2022-10-14T09:04:08.989Z,57.74
2022-10-14T09:05:20.937Z,57.43
2022-10-14T09:06:30.101Z,58.04
2022-10-14T09:07:34.497Z,57.51
2022-10-14T09:08:46.013Z,57.92
2022-10-14T09:09:51.481Z,56.99
2022-10-14T09:11:12.841Z,56.99
2022-10-14T09:21:03.496Z,55.34
2022-10-14T09:22:09.472Z,54.80
2022-10-14T09:23:21.106Z,54.59
2022-10-14T09:24:27.238Z,54.39
2022-10-14T09:25:33.738Z,54.97
2022-10-14T09:26:42.477Z,53.91
2022-10-14T09:27:44.270Z,53.91
2022-10-14T09:28:46.823Z,52.74
2022-10-14T09:29:55.720Z,53.56
2022-10-14T09:30:57.786Z,53.13
2022-10-14T09:32:03.350Z,57.03
2022-10-14T09:33:08.419Z,59.65
2022-10-14T09:34:13.923Z,61.89
2022-10-14T09:35:25.853Z,61.63
2022-10-14T09:36:28.564Z,55.38
2022-10-14T09:37:55.410Z,63.99
2022-10-14T09:39:05.382Z,55.50
2022-10-14T09:40:15.988Z,62.71
2022-10-14T09:41:27.909Z,57.13
2022-10-14T09:42:43.470Z,51.70
2022-10-14T09:44:20.481Z,53.48
2022-10-14T09:45:27.866Z,57.77
2022-10-14T09:46:34.506Z,50.96
2022-10-14T09:47:45.169Z,53.19
2022-10-14T09:48:51.781Z,50.66
2022-10-14T09:49:55.609Z,59.76
2022-10-14T09:51:03.683Z,61.35
2022-10-14T09:52:07.121Z,61.82
2022-10-14T09:54:59.890Z,59.50
2022-10-14T09:56:06.261Z,59.61
2022-10-14T09:57:11.819Z,57.63
2022-10-14T09:58:17.930Z,51.72
2022-10-14T09:59:22.086Z,57.84
2022-10-14T10:00:27.736Z,59.51
2022-10-14T10:01:33.710Z,54.26
2022-10-14T10:02:42.219Z,52.40
2022-10-14T10:03:45.368Z,51.28
2022-10-14T10:04:49.396Z,55.23
2022-10-14T10:06:04.106Z,56.18
2022-10-14T10:07:09.170Z,65.14
2022-10-14T10:08:18.196Z,51.84
2022-10-14T10:09:20.439Z,49.78
2022-10-14T10:10:22.341Z,53.37
2022-10-14T10:11:34.673Z,57.28
2022-10-14T10:12:37.033Z,58.23
2022-10-14T10:13:46.497Z,55.67
2022-10-14T10:15:04.275Z,53.24
2022-10-14T10:16:10.400Z,53.84
2022-10-14T10:17:18.278Z,50.66
2022-10-14T10:18:23.213Z,50.29
2022-10-14T10:19:40.138Z,49.89
2022-10-14T10:20:44.369Z,50.52
2022-10-14T10:21:46.624Z,48.78
2022-10-14T10:22:48.539Z,54.74
2022-10-14T10:23:57.013Z,58.54
2022-10-14T10:25:09.554Z,51.37
2022-10-14T10:26:18.193Z,55.86
2022-10-14T10:27:27.769Z,58.12
2022-10-14T10:28:30.062Z,64.75
2022-10-14T10:29:33.104Z,51.13
2022-10-14T10:30:44.616Z,62.16
2022-10-14T10:31:53.451Z,56.44
2022-10-14T10:33:23.504Z,63.39
2022-10-14T10:34:44.495Z,54.78
2022-10-14T10:35:53.739Z,62.00
2022-10-14T10:37:01.967Z,59.53
2022-10-14T10:38:37.581Z,49.92
2022-10-14T10:40:13.800Z,59.87
2022-10-14T10:41:23.283Z,55.04
2022-10-14T10:42:50.480Z,50.18
2022-10-14T10:44:14.773Z,47.86
2022-10-14T10:45:39.037Z,52.76
2022-10-14T10:46:56.374Z,48.19
2022-10-14T10:48:04.916Z,51.01
2022-10-14T10:49:29.033Z,51.26
2022-10-14T10:50:50.410Z,50.03
2022-10-14T10:52:15.072Z,56.21
2022-10-14T10:53:26.006Z,54.22
2022-10-14T10:54:44.936Z,47.93
2022-10-14T10:56:08.856Z,48.22
2022-10-14T10:57:25.819Z,46.76
2022-10-14T10:58:43.768Z,50.42
2022-10-14T11:01:25.082Z,48.40
2022-10-14T11:02:42.789Z,55.14
2022-10-14T11:04:00.121Z,51.50
2022-10-14T11:05:21.979Z,49.76
2022-10-14T11:06:31.163Z,48.42
2022-10-14T11:07:44.004Z,49.59
2022-10-14T11:08:58.476Z,48.35
2022-10-14T11:10:07.006Z,46.10
2022-10-14T11:11:30.916Z,45.58
2022-10-14T11:12:45.151Z,46.22
2022-10-14T11:14:06.382Z,46.03
2022-10-14T11:15:32.401Z,44.90
2022-10-14T11:16:41.261Z,45.12
2022-10-14T11:17:52.588Z,46.77
2022-10-14T11:19:14.834Z,46.61
2022-10-14T11:20:21.013Z,46.07
2022-10-14T11:21:44.589Z,46.89
2022-10-14T11:23:18.432Z,45.80
2022-10-14T11:24:42.235Z,43.94
2022-10-14T11:25:56.625Z,45.04
2022-10-14T11:27:08.873Z,45.49
2022-10-14T11:28:14.459Z,45.80
2022-10-14T11:29:21.935Z,45.67
2022-10-14T11:30:36.091Z,46.14
2022-10-14T11:31:42.156Z,46.45
2022-10-14T11:32:56.631Z,46.69
2022-10-14T11:34:25.360Z,45.46
2022-10-14T11:35:49.329Z,44.81
2022-10-14T11:36:56.392Z,44.69
2022-10-14T11:38:17.464Z,44.54
2022-10-14T11:39:35.864Z,44.22
2022-10-14T11:41:03.232Z,44.59
2022-10-14T11:42:26.349Z,44.17
2022-10-14T11:44:04.154Z,43.15
2022-10-14T11:45:28.821Z,43.48
2022-10-14T11:46:37.192Z,42.12
2022-10-14T11:47:42.715Z,42.42
2022-10-14T11:48:59.210Z,42.35
2022-10-14T11:50:09.404Z,42.85
2022-10-14T11:51:35.879Z,43.43
2022-10-14T11:52:41.713Z,41.75
2022-10-14T11:54:18.939Z,41.96
2022-10-14T11:55:23.858Z,42.68
2022-10-14T11:56:52.338Z,42.14
2022-10-14T11:58:23.087Z,40.96
2022-10-14T11:59:40.547Z,40.71
2022-10-14T12:00:46.108Z,41.09
2022-10-14T12:01:52.186Z,41.19
2022-10-14T12:03:16.227Z,41.16
2022-10-14T12:04:33.496Z,41.32
2022-10-14T12:05:50.912Z,41.04
2022-10-14T12:06:56.547Z,40.00
2022-10-14T12:08:18.981Z,40.42
2022-10-14T12:09:46.571Z,40.13
2022-10-14T12:11:04.448Z,39.90
2022-10-14T12:12:09.979Z,39.94
2022-10-14T12:13:15.336Z,39.54
2022-10-14T12:14:29.554Z,40.55
2022-10-14T12:15:32.813Z,39.86
2022-10-14T12:16:39.436Z,39.79
2022-10-14T12:17:47.918Z,39.80
2022-10-14T12:18:56.147Z,39.54
2022-10-14T12:20:03.547Z,39.82
2022-10-14T12:21:33.141Z,39.49
2022-10-14T12:22:35.865Z,39.40
2022-10-14T12:23:41.349Z,39.00
2022-10-14T12:24:52.417Z,38.40
2022-10-14T12:26:03.349Z,38.25
2022-10-14T12:27:10.820Z,37.56
2022-10-14T12:28:16.314Z,41.90
2022-10-14T12:29:24.591Z,44.02
2022-10-14T12:30:40.644Z,47.64
2022-10-14T12:31:49.603Z,48.73
2022-10-14T12:33:07.406Z,44.53
2022-10-14T12:34:16.648Z,38.72
2022-10-14T12:35:50.576Z,42.47
2022-10-14T12:36:54.307Z,44.09
2022-10-14T12:37:59.748Z,46.57
2022-10-14T12:39:20.343Z,40.91
2022-10-14T12:40:25.265Z,47.50
2022-10-14T12:41:40.411Z,37.35
2022-10-14T12:43:02.742Z,35.89
2022-10-14T12:44:07.788Z,41.30
2022-10-14T12:45:19.603Z,42.23
2022-10-14T12:46:23.523Z,42.94
2022-10-14T12:47:31.771Z,36.60
2022-10-14T12:48:36.814Z,40.88
2022-10-14T12:49:38.952Z,41.73
2022-10-14T12:50:44.252Z,37.07
2022-10-14T12:51:54.516Z,36.09
2022-10-14T12:53:00.906Z,35.17
2022-10-14T12:54:08.173Z,35.54
2022-10-14T12:55:17.198Z,35.01
2022-10-14T12:56:29.588Z,36.05
2022-10-14T12:57:36.239Z,36.74
2022-10-14T12:58:44.249Z,36.83
2022-10-14T12:59:49.852Z,36.32
2022-10-14T13:00:59.373Z,35.62
2022-10-14T13:02:05.899Z,35.76
2022-10-14T13:03:20.883Z,35.79
2022-10-14T13:04:23.329Z,34.96
2022-10-14T13:05:35.346Z,35.98
2022-10-14T13:06:39.795Z,35.63
2022-10-14T13:07:46.616Z,35.98
2022-10-14T13:09:15.319Z,36.42
2022-10-14T13:10:45.911Z,36.73
2022-10-14T13:11:55.937Z,36.84
2022-10-14T13:12:58.033Z,37.36
2022-10-14T13:14:01.640Z,37.35
2022-10-14T13:15:23.868Z,37.35
2022-10-14T13:16:29.747Z,37.31
2022-10-14T13:17:47.267Z,37.80
2022-10-14T13:19:01.097Z,36.55
2022-10-14T13:20:04.985Z,35.47
2022-10-14T13:21:10.504Z,36.20
2022-10-14T13:22:34.103Z,35.69
2022-10-14T13:23:44.371Z,36.36
2022-10-14T13:24:46.365Z,35.37
2022-10-14T13:25:51.545Z,35.81
2022-10-14T13:26:59.565Z,35.95
2022-10-14T13:28:10.860Z,35.63
2022-10-14T13:29:43.500Z,35.60
2022-10-14T13:30:49.155Z,35.77
2022-10-14T13:32:07.641Z,35.52
2022-10-14T13:33:22.530Z,35.52
2022-10-14T13:34:55.417Z,35.38
2022-10-14T13:36:17.532Z,34.92
2022-10-14T13:37:32.050Z,35.76
2022-10-14T13:38:35.805Z,35.15
2022-10-14T13:39:38.974Z,35.22
2022-10-14T13:40:47.388Z,35.97
2022-10-14T13:41:50.048Z,36.11
2022-10-14T13:42:55.519Z,35.48
2022-10-14T13:44:00.432Z,36.29
2022-10-14T13:45:12.698Z,35.83
2022-10-14T13:46:30.733Z,35.73
2022-10-14T13:47:35.249Z,42.72
2022-10-14T13:48:41.475Z,39.99
2022-10-14T13:49:43.429Z,38.64
2022-10-14T13:50:50.144Z,44.79
2022-10-14T13:51:59.657Z,39.93
2022-10-14T13:53:05.000Z,39.53
2022-10-14T13:54:25.449Z,40.57
2022-10-14T13:55:27.311Z,38.03
2022-10-14T13:56:32.664Z,38.33
2022-10-14T13:58:00.147Z,36.87
2022-10-14T13:58:41.184Z,35.71
2022-10-14T14:00:11.662Z,37.52
2022-10-14T14:00:58.173Z,39.40
2022-10-14T14:02:03.375Z,41.60
2022-10-14T14:03:12.795Z,37.09
2022-10-14T14:04:18.853Z,38.46
2022-10-14T14:05:24.124Z,36.24
2022-10-14T14:06:35.838Z,38.15
2022-10-14T14:08:13.535Z,35.64
2022-10-14T14:08:50.977Z,37.07
2022-10-14T14:09:56.872Z,38.04
2022-10-14T14:11:16.133Z,37.74
2022-10-14T14:12:11.665Z,37.92
2022-10-14T14:13:15.128Z,39.05
2022-10-14T14:14:21.726Z,38.21
2022-10-14T14:15:27.603Z,36.95
2022-10-14T14:16:33.636Z,37.88
2022-10-14T14:17:35.972Z,37.91
2022-10-14T14:18:49.307Z,37.33
2022-10-14T14:19:45.091Z,37.59
2022-10-14T14:20:50.878Z,38.94
2022-10-14T14:22:17.740Z,37.83
2022-10-14T14:23:21.896Z,37.73
2022-10-14T14:24:25.328Z,37.37
2022-10-14T14:25:34.415Z,37.80
2022-10-14T14:26:35.887Z,37.93
2022-10-14T14:27:46.021Z,36.83
2022-10-14T14:28:48.684Z,37.23
2022-10-14T14:29:53.880Z,37.25
2022-10-14T14:30:57.355Z,37.79
2022-10-14T14:32:08.760Z,37.09
2022-10-14T14:33:09.454Z,37.45
2022-10-14T14:34:14.991Z,37.47
2022-10-14T14:35:22.048Z,38.84
2022-10-14T14:36:33.515Z,39.19
2022-10-14T14:38:38.182Z,39.09
2022-10-14T14:39:40.094Z,40.18
2022-10-14T14:40:42.652Z,41.63
2022-10-14T14:41:50.611Z,41.85
2022-10-14T14:42:59.230Z,42.26